sensor_id;sensor_type;location;lat;lon;timestamp;P1;durP1;ratioP1;P2;durP2;ratioP2
74963;SDS011;63521;51.900;4.748;2023-09-12T00:01:28;5.25;;;4.07;;
74963;SDS011;63521;51.900;4.748;2023-09-12T00:03:57;6.05;;;3.80;;
74963;SDS011;63521;51.900;4.748;2023-09-12T00:06:23;5.85;;;4.20;;
74963;SDS011;63521;51.900;4.748;2023-09-12T00:08:49;5.70;;;4.03;;
74963;SDS011;63521;51.900;4.748;2023-09-12T00:11:14;5.70;;;3.78;;
74963;SDS011;63521;51.900;4.748;2023-09-12T00:13:40;5.95;;;4.25;;
74963;SDS011;63521;51.900;4.748;2023-09-12T00:16:06;6.13;;;4.50;;
74963;SDS011;63521;51.900;4.748;2023-09-12T00:18:34;5.45;;;3.65;;
74963;SDS011;63521;51.900;4.748;2023-09-12T00:21:00;6.45;;;4.18;;
74963;SDS011;63521;51.900;4.748;2023-09-12T00:23:26;5.50;;;3.85;;
74963;SDS011;63521;51.900;4.748;2023-09-12T00:25:54;5.45;;;3.90;;
74963;SDS011;63521;51.900;4.748;2023-09-12T00:28:22;4.45;;;3.33;;
74963;SDS011;63521;51.900;4.748;2023-09-12T00:30:49;7.00;;;4.25;;
74963;SDS011;63521;51.900;4.748;2023-09-12T00:33:19;6.25;;;4.70;;
74963;SDS011;63521;51.900;4.748;2023-09-12T00:38:16;5.30;;;3.83;;
74963;SDS011;63521;51.900;4.748;2023-09-12T00:40:41;5.88;;;4.10;;
74963;SDS011;63521;51.900;4.748;2023-09-12T00:43:06;6.47;;;4.00;;
74963;SDS011;63521;51.900;4.748;2023-09-12T00:45:32;5.60;;;3.80;;
74963;SDS011;63521;51.900;4.748;2023-09-12T00:47:58;5.25;;;3.47;;
74963;SDS011;63521;51.900;4.748;2023-09-12T00:50:24;4.70;;;3.92;;
74963;SDS011;63521;51.900;4.748;2023-09-12T00:52:53;6.07;;;3.80;;
74963;SDS011;63521;51.900;4.748;2023-09-12T00:55:19;5.22;;;3.53;;
74963;SDS011;63521;51.900;4.748;2023-09-12T00:57:44;6.15;;;4.05;;
74963;SDS011;63521;51.900;4.748;2023-09-12T01:00:11;5.63;;;3.50;;
74963;SDS011;63521;51.900;4.748;2023-09-12T01:05:21;5.15;;;4.00;;
74963;SDS011;63521;51.900;4.748;2023-09-12T01:07:47;4.70;;;3.58;;
74963;SDS011;63521;51.900;4.748;2023-09-12T01:10:13;5.68;;;3.95;;
74963;SDS011;63521;51.900;4.748;2023-09-12T01:12:38;6.40;;;4.10;;
74963;SDS011;63521;51.900;4.748;2023-09-12T01:15:04;5.28;;;3.50;;
74963;SDS011;63521;51.900;4.748;2023-09-12T01:17:33;4.40;;;3.50;;
74963;SDS011;63521;51.900;4.748;2023-09-12T01:19:59;6.38;;;3.85;;
74963;SDS011;63521;51.900;4.748;2023-09-12T01:26:02;5.60;;;3.70;;
74963;SDS011;63521;51.900;4.748;2023-09-12T01:28:13;5.95;;;3.40;;
74963;SDS011;63521;51.900;4.748;2023-09-12T01:30:41;4.65;;;3.72;;
74963;SDS011;63521;51.900;4.748;2023-09-12T01:33:07;4.50;;;3.65;;
74963;SDS011;63521;51.900;4.748;2023-09-12T01:35:32;4.78;;;3.45;;
74963;SDS011;63521;51.900;4.748;2023-09-12T01:37:58;6.20;;;3.80;;
74963;SDS011;63521;51.900;4.748;2023-09-12T01:43:25;5.00;;;3.60;;
74963;SDS011;63521;51.900;4.748;2023-09-12T01:45:55;4.65;;;3.47;;
74963;SDS011;63521;51.900;4.748;2023-09-12T01:48:23;4.85;;;3.50;;
74963;SDS011;63521;51.900;4.748;2023-09-12T01:50:51;4.55;;;3.65;;
74963;SDS011;63521;51.900;4.748;2023-09-12T01:53:17;5.53;;;4.00;;
74963;SDS011;63521;51.900;4.748;2023-09-12T01:55:43;4.65;;;3.47;;
74963;SDS011;63521;51.900;4.748;2023-09-12T01:58:13;4.90;;;3.55;;
74963;SDS011;63521;51.900;4.748;2023-09-12T02:00:39;4.97;;;3.50;;
74963;SDS011;63521;51.900;4.748;2023-09-12T02:03:05;4.95;;;3.60;;
74963;SDS011;63521;51.900;4.748;2023-09-12T02:05:31;5.18;;;3.50;;
74963;SDS011;63521;51.900;4.748;2023-09-12T02:07:57;4.70;;;3.30;;
74963;SDS011;63521;51.900;4.748;2023-09-12T02:10:24;4.72;;;3.50;;
74963;SDS011;63521;51.900;4.748;2023-09-12T02:12:49;5.00;;;3.42;;
74963;SDS011;63521;51.900;4.748;2023-09-12T02:15:15;5.43;;;3.50;;
74963;SDS011;63521;51.900;4.748;2023-09-12T02:17:40;4.97;;;3.33;;
74963;SDS011;63521;51.900;4.748;2023-09-12T02:20:07;4.45;;;3.00;;
74963;SDS011;63521;51.900;4.748;2023-09-12T02:22:32;4.10;;;3.25;;
74963;SDS011;63521;51.900;4.748;2023-09-12T02:24:58;4.50;;;3.08;;
74963;SDS011;63521;51.900;4.748;2023-09-12T02:27:23;4.60;;;3.20;;
74963;SDS011;63521;51.900;4.748;2023-09-12T02:29:49;4.45;;;3.22;;
74963;SDS011;63521;51.900;4.748;2023-09-12T02:32:14;3.17;;;2.80;;
74963;SDS011;63521;51.900;4.748;2023-09-12T02:34:40;3.42;;;2.95;;
74963;SDS011;63521;51.900;4.748;2023-09-12T02:37:05;4.20;;;3.22;;
74963;SDS011;63521;51.900;4.748;2023-09-12T02:39:30;4.40;;;3.50;;
74963;SDS011;63521;51.900;4.748;2023-09-12T02:41:56;4.28;;;3.08;;
74963;SDS011;63521;51.900;4.748;2023-09-12T02:44:21;3.40;;;2.67;;
74963;SDS011;63521;51.900;4.748;2023-09-12T02:46:46;4.32;;;3.20;;
74963;SDS011;63521;51.900;4.748;2023-09-12T02:49:13;4.22;;;3.17;;
74963;SDS011;63521;51.900;4.748;2023-09-12T02:51:39;3.53;;;3.00;;
74963;SDS011;63521;51.900;4.748;2023-09-12T02:54:04;4.13;;;3.00;;
74963;SDS011;63521;51.900;4.748;2023-09-12T02:56:30;3.75;;;2.75;;
74963;SDS011;63521;51.900;4.748;2023-09-12T02:58:55;3.97;;;2.80;;
74963;SDS011;63521;51.900;4.748;2023-09-12T03:01:21;4.50;;;3.20;;
74963;SDS011;63521;51.900;4.748;2023-09-12T03:03:46;3.22;;;2.67;;
74963;SDS011;63521;51.900;4.748;2023-09-12T03:06:12;3.30;;;2.70;;
74963;SDS011;63521;51.900;4.748;2023-09-12T03:08:39;4.07;;;3.15;;
74963;SDS011;63521;51.900;4.748;2023-09-12T03:11:05;4.45;;;2.67;;
74963;SDS011;63521;51.900;4.748;2023-09-12T03:13:32;3.13;;;2.42;;
74963;SDS011;63521;51.900;4.748;2023-09-12T03:15:58;3.47;;;2.75;;
74963;SDS011;63521;51.900;4.748;2023-09-12T03:18:23;3.97;;;2.58;;
74963;SDS011;63521;51.900;4.748;2023-09-12T03:20:49;3.50;;;2.50;;
74963;SDS011;63521;51.900;4.748;2023-09-12T03:23:14;2.95;;;2.30;;
74963;SDS011;63521;51.900;4.748;2023-09-12T03:25:40;3.47;;;2.65;;
74963;SDS011;63521;51.900;4.748;2023-09-12T03:28:05;3.70;;;2.47;;
74963;SDS011;63521;51.900;4.748;2023-09-12T03:30:35;3.15;;;2.30;;
74963;SDS011;63521;51.900;4.748;2023-09-12T03:33:04;3.70;;;2.38;;
74963;SDS011;63521;51.900;4.748;2023-09-12T03:35:33;3.70;;;2.95;;
74963;SDS011;63521;51.900;4.748;2023-09-12T03:37:59;4.10;;;2.70;;
74963;SDS011;63521;51.900;4.748;2023-09-12T03:40:25;2.97;;;2.30;;
74963;SDS011;63521;51.900;4.748;2023-09-12T03:42:50;2.63;;;2.13;;
74963;SDS011;63521;51.900;4.748;2023-09-12T03:45:16;2.92;;;2.30;;
74963;SDS011;63521;51.900;4.748;2023-09-12T03:47:41;2.90;;;2.13;;
74963;SDS011;63521;51.900;4.748;2023-09-12T03:50:07;3.20;;;2.35;;
74963;SDS011;63521;51.900;4.748;2023-09-12T03:52:33;3.03;;;2.10;;
74963;SDS011;63521;51.900;4.748;2023-09-12T03:54:58;3.15;;;2.15;;
74963;SDS011;63521;51.900;4.748;2023-09-12T03:57:25;3.15;;;2.40;;
74963;SDS011;63521;51.900;4.748;2023-09-12T03:59:51;2.90;;;2.08;;
74963;SDS011;63521;51.900;4.748;2023-09-12T04:02:17;2.55;;;2.10;;
74963;SDS011;63521;51.900;4.748;2023-09-12T04:04:43;2.90;;;2.25;;
74963;SDS011;63521;51.900;4.748;2023-09-12T04:07:08;3.38;;;2.20;;
74963;SDS011;63521;51.900;4.748;2023-09-12T04:09:33;2.75;;;2.17;;
74963;SDS011;63521;51.900;4.748;2023-09-12T04:11:59;3.58;;;2.38;;
74963;SDS011;63521;51.900;4.748;2023-09-12T04:14:24;2.90;;;2.30;;
74963;SDS011;63521;51.900;4.748;2023-09-12T04:16:49;3.03;;;2.50;;
74963;SDS011;63521;51.900;4.748;2023-09-12T04:19:15;3.45;;;2.50;;
74963;SDS011;63521;51.900;4.748;2023-09-12T04:21:40;3.67;;;2.45;;
74963;SDS011;63521;51.900;4.748;2023-09-12T04:24:06;2.67;;;2.10;;
74963;SDS011;63521;51.900;4.748;2023-09-12T04:26:32;3.05;;;2.28;;
74963;SDS011;63521;51.900;4.748;2023-09-12T04:28:57;4.00;;;2.83;;
74963;SDS011;63521;51.900;4.748;2023-09-12T04:31:23;2.97;;;2.42;;
74963;SDS011;63521;51.900;4.748;2023-09-12T04:33:50;2.95;;;2.13;;
74963;SDS011;63521;51.900;4.748;2023-09-12T04:36:16;4.82;;;2.50;;
74963;SDS011;63521;51.900;4.748;2023-09-12T04:38:42;3.40;;;2.60;;
74963;SDS011;63521;51.900;4.748;2023-09-12T04:41:11;2.80;;;2.10;;
74963;SDS011;63521;51.900;4.748;2023-09-12T04:43:39;3.50;;;2.70;;
74963;SDS011;63521;51.900;4.748;2023-09-12T04:46:04;3.63;;;2.70;;
74963;SDS011;63521;51.900;4.748;2023-09-12T04:48:33;5.05;;;2.63;;
74963;SDS011;63521;51.900;4.748;2023-09-12T04:50:58;3.63;;;2.55;;
74963;SDS011;63521;51.900;4.748;2023-09-12T04:53:23;2.88;;;2.28;;
74963;SDS011;63521;51.900;4.748;2023-09-12T04:55:51;3.45;;;2.25;;
74963;SDS011;63521;51.900;4.748;2023-09-12T04:58:17;3.95;;;2.60;;
74963;SDS011;63521;51.900;4.748;2023-09-12T05:00:42;4.10;;;2.70;;
74963;SDS011;63521;51.900;4.748;2023-09-12T05:03:08;2.85;;;2.17;;
74963;SDS011;63521;51.900;4.748;2023-09-12T05:05:34;2.97;;;2.20;;
74963;SDS011;63521;51.900;4.748;2023-09-12T05:08:01;3.85;;;2.45;;
74963;SDS011;63521;51.900;4.748;2023-09-12T05:10:27;3.75;;;2.50;;
74963;SDS011;63521;51.900;4.748;2023-09-12T05:12:52;5.13;;;2.53;;
74963;SDS011;63521;51.900;4.748;2023-09-12T05:15:18;4.03;;;2.58;;
74963;SDS011;63521;51.900;4.748;2023-09-12T05:17:43;3.65;;;2.40;;
74963;SDS011;63521;51.900;4.748;2023-09-12T05:20:09;3.45;;;2.08;;
74963;SDS011;63521;51.900;4.748;2023-09-12T05:22:35;3.53;;;2.63;;
74963;SDS011;63521;51.900;4.748;2023-09-12T05:25:00;6.90;;;2.88;;
74963;SDS011;63521;51.900;4.748;2023-09-12T05:27:25;3.28;;;2.40;;
74963;SDS011;63521;51.900;4.748;2023-09-12T05:29:51;3.42;;;2.38;;
74963;SDS011;63521;51.900;4.748;2023-09-12T05:32:16;4.18;;;2.53;;
74963;SDS011;63521;51.900;4.748;2023-09-12T05:34:42;4.45;;;2.50;;
74963;SDS011;63521;51.900;4.748;2023-09-12T05:37:07;3.45;;;2.70;;
74963;SDS011;63521;51.900;4.748;2023-09-12T05:39:32;4.22;;;2.40;;
74963;SDS011;63521;51.900;4.748;2023-09-12T05:41:58;4.68;;;2.65;;
74963;SDS011;63521;51.900;4.748;2023-09-12T05:44:23;4.00;;;2.72;;
74963;SDS011;63521;51.900;4.748;2023-09-12T05:46:49;3.83;;;2.50;;
74963;SDS011;63521;51.900;4.748;2023-09-12T05:49:14;3.58;;;2.50;;
74963;SDS011;63521;51.900;4.748;2023-09-12T05:51:40;4.38;;;2.80;;
74963;SDS011;63521;51.900;4.748;2023-09-12T05:54:18;3.72;;;2.80;;
74963;SDS011;63521;51.900;4.748;2023-09-12T05:56:44;4.80;;;2.83;;
74963;SDS011;63521;51.900;4.748;2023-09-12T05:59:10;3.47;;;2.60;;
74963;SDS011;63521;51.900;4.748;2023-09-12T06:01:35;4.65;;;3.10;;
74963;SDS011;63521;51.900;4.748;2023-09-12T06:04:01;4.30;;;2.72;;
74963;SDS011;63521;51.900;4.748;2023-09-12T06:06:27;4.80;;;2.88;;
74963;SDS011;63521;51.900;4.748;2023-09-12T06:08:52;4.90;;;2.60;;
74963;SDS011;63521;51.900;4.748;2023-09-12T06:11:18;4.68;;;2.80;;
74963;SDS011;63521;51.900;4.748;2023-09-12T06:13:44;3.97;;;2.88;;
74963;SDS011;63521;51.900;4.748;2023-09-12T06:16:09;4.53;;;3.13;;
74963;SDS011;63521;51.900;4.748;2023-09-12T06:18:35;4.50;;;2.60;;
74963;SDS011;63521;51.900;4.748;2023-09-12T06:21:00;4.35;;;2.58;;
74963;SDS011;63521;51.900;4.748;2023-09-12T06:23:30;6.13;;;3.08;;
74963;SDS011;63521;51.900;4.748;2023-09-12T06:25:55;4.13;;;2.95;;
74963;SDS011;63521;51.900;4.748;2023-09-12T06:28:27;4.50;;;3.10;;
74963;SDS011;63521;51.900;4.748;2023-09-12T06:30:55;4.75;;;2.63;;
74963;SDS011;63521;51.900;4.748;2023-09-12T06:33:21;4.00;;;2.83;;
74963;SDS011;63521;51.900;4.748;2023-09-12T06:35:48;4.03;;;3.10;;
74963;SDS011;63521;51.900;4.748;2023-09-12T06:38:15;4.40;;;2.95;;
74963;SDS011;63521;51.900;4.748;2023-09-12T06:40:42;4.95;;;3.22;;
74963;SDS011;63521;51.900;4.748;2023-09-12T06:43:07;4.15;;;3.03;;
74963;SDS011;63521;51.900;4.748;2023-09-12T06:45:33;4.07;;;2.80;;
74963;SDS011;63521;51.900;4.748;2023-09-12T06:48:00;5.45;;;2.97;;
74963;SDS011;63521;51.900;4.748;2023-09-12T06:50:25;4.82;;;3.20;;
74963;SDS011;63521;51.900;4.748;2023-09-12T06:52:51;4.95;;;2.80;;
74963;SDS011;63521;51.900;4.748;2023-09-12T06:55:16;4.63;;;2.78;;
74963;SDS011;63521;51.900;4.748;2023-09-12T06:57:42;6.07;;;2.88;;
74963;SDS011;63521;51.900;4.748;2023-09-12T07:00:07;4.57;;;3.05;;
74963;SDS011;63521;51.900;4.748;2023-09-12T07:02:33;5.88;;;3.50;;
74963;SDS011;63521;51.900;4.748;2023-09-12T07:04:59;5.28;;;3.00;;
74963;SDS011;63521;51.900;4.748;2023-09-12T07:07:24;5.15;;;3.35;;
74963;SDS011;63521;51.900;4.748;2023-09-12T07:09:52;5.35;;;3.50;;
74963;SDS011;63521;51.900;4.748;2023-09-12T07:12:17;5.80;;;3.47;;
74963;SDS011;63521;51.900;4.748;2023-09-12T07:14:43;5.05;;;3.20;;
74963;SDS011;63521;51.900;4.748;2023-09-12T07:17:08;6.82;;;3.55;;
74963;SDS011;63521;51.900;4.748;2023-09-12T07:19:34;7.78;;;3.58;;
74963;SDS011;63521;51.900;4.748;2023-09-12T07:21:59;8.25;;;4.10;;
74963;SDS011;63521;51.900;4.748;2023-09-12T07:24:25;18.88;;;10.13;;
74963;SDS011;63521;51.900;4.748;2023-09-12T07:26:51;31.30;;;13.73;;
74963;SDS011;63521;51.900;4.748;2023-09-12T07:29:17;30.42;;;13.60;;
74963;SDS011;63521;51.900;4.748;2023-09-12T07:31:42;31.35;;;15.20;;
74963;SDS011;63521;51.900;4.748;2023-09-12T07:34:08;34.03;;;16.63;;
74963;SDS011;63521;51.900;4.748;2023-09-12T07:36:34;30.27;;;15.18;;
74963;SDS011;63521;51.900;4.748;2023-09-12T07:39:03;41.08;;;17.23;;
74963;SDS011;63521;51.900;4.748;2023-09-12T07:45:12;35.55;;;15.45;;
74963;SDS011;63521;51.900;4.748;2023-09-12T07:47:39;35.40;;;15.55;;
74963;SDS011;63521;51.900;4.748;2023-09-12T07:50:18;40.85;;;17.92;;
74963;SDS011;63521;51.900;4.748;2023-09-12T07:53:46;33.10;;;15.82;;
74963;SDS011;63521;51.900;4.748;2023-09-12T08:09:05;37.83;;;16.02;;
74963;SDS011;63521;51.900;4.748;2023-09-12T08:14:55;35.20;;;16.52;;
74963;SDS011;63521;51.900;4.748;2023-09-12T08:22:15;32.78;;;16.73;;
74963;SDS011;63521;51.900;4.748;2023-09-12T08:24:41;35.78;;;17.13;;
74963;SDS011;63521;51.900;4.748;2023-09-12T08:27:06;37.67;;;17.10;;
74963;SDS011;63521;51.900;4.748;2023-09-12T08:29:33;33.95;;;16.63;;
74963;SDS011;63521;51.900;4.748;2023-09-12T08:31:59;37.85;;;16.45;;
74963;SDS011;63521;51.900;4.748;2023-09-12T08:34:25;34.83;;;16.92;;
74963;SDS011;63521;51.900;4.748;2023-09-12T08:36:50;35.53;;;18.25;;
74963;SDS011;63521;51.900;4.748;2023-09-12T08:39:17;34.55;;;17.27;;
74963;SDS011;63521;51.900;4.748;2023-09-12T08:41:43;28.55;;;15.15;;
74963;SDS011;63521;51.900;4.748;2023-09-12T08:44:11;35.58;;;16.70;;
74963;SDS011;63521;51.900;4.748;2023-09-12T08:46:37;39.22;;;15.85;;
74963;SDS011;63521;51.900;4.748;2023-09-12T08:49:05;31.98;;;16.30;;
74963;SDS011;63521;51.900;4.748;2023-09-12T08:51:31;32.13;;;16.33;;
74963;SDS011;63521;51.900;4.748;2023-09-12T08:53:57;33.72;;;16.63;;
74963;SDS011;63521;51.900;4.748;2023-09-12T08:56:22;31.73;;;15.88;;
74963;SDS011;63521;51.900;4.748;2023-09-12T08:58:49;29.38;;;15.60;;
74963;SDS011;63521;51.900;4.748;2023-09-12T09:01:15;31.05;;;15.40;;
74963;SDS011;63521;51.900;4.748;2023-09-12T09:03:42;30.27;;;16.75;;
74963;SDS011;63521;51.900;4.748;2023-09-12T09:06:11;31.65;;;15.98;;
74963;SDS011;63521;51.900;4.748;2023-09-12T09:08:38;33.05;;;16.63;;
74963;SDS011;63521;51.900;4.748;2023-09-12T09:11:04;34.53;;;17.95;;
74963;SDS011;63521;51.900;4.748;2023-09-12T09:13:31;36.78;;;17.38;;
74963;SDS011;63521;51.900;4.748;2023-09-12T09:18:55;30.85;;;16.92;;
74963;SDS011;63521;51.900;4.748;2023-09-12T09:21:21;31.77;;;16.05;;
74963;SDS011;63521;51.900;4.748;2023-09-12T09:23:54;31.35;;;16.17;;
74963;SDS011;63521;51.900;4.748;2023-09-12T09:26:20;29.42;;;15.60;;
74963;SDS011;63521;51.900;4.748;2023-09-12T09:29:08;34.97;;;16.83;;
74963;SDS011;63521;51.900;4.748;2023-09-12T09:31:34;29.50;;;16.35;;
74963;SDS011;63521;51.900;4.748;2023-09-12T09:34:00;32.45;;;17.33;;
74963;SDS011;63521;51.900;4.748;2023-09-12T09:36:27;31.33;;;15.85;;
74963;SDS011;63521;51.900;4.748;2023-09-12T09:38:54;35.80;;;18.33;;
74963;SDS011;63521;51.900;4.748;2023-09-12T09:41:20;37.47;;;17.88;;
74963;SDS011;63521;51.900;4.748;2023-09-12T09:43:48;35.05;;;18.35;;
74963;SDS011;63521;51.900;4.748;2023-09-12T09:46:15;34.65;;;17.42;;
74963;SDS011;63521;51.900;4.748;2023-09-12T09:48:48;36.03;;;17.73;;
74963;SDS011;63521;51.900;4.748;2023-09-12T09:51:15;34.33;;;18.15;;
74963;SDS011;63521;51.900;4.748;2023-09-12T09:53:42;35.45;;;17.77;;
74963;SDS011;63521;51.900;4.748;2023-09-12T09:56:09;37.97;;;18.55;;
74963;SDS011;63521;51.900;4.748;2023-09-12T09:58:56;35.85;;;16.90;;
74963;SDS011;63521;51.900;4.748;2023-09-12T10:01:28;35.85;;;18.45;;
74963;SDS011;63521;51.900;4.748;2023-09-12T10:03:58;34.45;;;17.08;;
74963;SDS011;63521;51.900;4.748;2023-09-12T10:06:25;34.58;;;16.88;;
74963;SDS011;63521;51.900;4.748;2023-09-12T10:08:52;32.63;;;17.10;;
74963;SDS011;63521;51.900;4.748;2023-09-12T10:11:18;36.47;;;19.17;;
74963;SDS011;63521;51.900;4.748;2023-09-12T10:13:55;37.28;;;18.95;;
74963;SDS011;63521;51.900;4.748;2023-09-12T10:16:44;34.47;;;18.17;;
74963;SDS011;63521;51.900;4.748;2023-09-12T10:21:59;32.40;;;17.92;;
74963;SDS011;63521;51.900;4.748;2023-09-12T10:24:44;34.20;;;17.77;;
74963;SDS011;63521;51.900;4.748;2023-09-12T10:31:07;31.45;;;16.42;;
74963;SDS011;63521;51.900;4.748;2023-09-12T10:33:32;32.08;;;17.17;;
74963;SDS011;63521;51.900;4.748;2023-09-12T10:36:00;28.17;;;16.35;;
74963;SDS011;63521;51.900;4.748;2023-09-12T10:38:36;30.00;;;16.30;;
74963;SDS011;63521;51.900;4.748;2023-09-12T10:41:12;29.77;;;16.95;;
74963;SDS011;63521;51.900;4.748;2023-09-12T10:43:48;33.20;;;17.65;;
74963;SDS011;63521;51.900;4.748;2023-09-12T10:47:57;30.50;;;16.58;;
74963;SDS011;63521;51.900;4.748;2023-09-12T10:51:26;31.55;;;16.42;;
74963;SDS011;63521;51.900;4.748;2023-09-12T10:53:51;28.25;;;14.82;;
74963;SDS011;63521;51.900;4.748;2023-09-12T10:56:19;26.77;;;16.25;;
74963;SDS011;63521;51.900;4.748;2023-09-12T11:01:35;27.40;;;14.80;;
74963;SDS011;63521;51.900;4.748;2023-09-12T11:06:45;23.10;;;14.43;;
74963;SDS011;63521;51.900;4.748;2023-09-12T11:11:39;21.63;;;12.90;;
74963;SDS011;63521;51.900;4.748;2023-09-12T11:14:07;20.27;;;12.77;;
74963;SDS011;63521;51.900;4.748;2023-09-12T11:16:32;20.45;;;12.43;;
74963;SDS011;63521;51.900;4.748;2023-09-12T11:19:17;19.00;;;12.60;;
74963;SDS011;63521;51.900;4.748;2023-09-12T11:21:44;22.00;;;12.27;;
74963;SDS011;63521;51.900;4.748;2023-09-12T11:24:10;18.45;;;12.13;;
74963;SDS011;63521;51.900;4.748;2023-09-12T11:26:51;20.13;;;12.18;;
74963;SDS011;63521;51.900;4.748;2023-09-12T11:32:00;18.05;;;11.75;;
74963;SDS011;63521;51.900;4.748;2023-09-12T11:34:28;17.50;;;10.85;;
74963;SDS011;63521;51.900;4.748;2023-09-12T11:36:56;18.05;;;11.43;;
74963;SDS011;63521;51.900;4.748;2023-09-12T11:39:25;16.98;;;11.93;;
74963;SDS011;63521;51.900;4.748;2023-09-12T11:41:55;15.25;;;10.85;;
74963;SDS011;63521;51.900;4.748;2023-09-12T11:44:21;15.80;;;10.85;;
74963;SDS011;63521;51.900;4.748;2023-09-12T11:46:47;16.48;;;10.85;;
74963;SDS011;63521;51.900;4.748;2023-09-12T11:49:14;16.48;;;11.43;;
74963;SDS011;63521;51.900;4.748;2023-09-12T11:51:53;18.85;;;10.77;;
74963;SDS011;63521;51.900;4.748;2023-09-12T11:54:28;14.82;;;11.18;;
74963;SDS011;63521;51.900;4.748;2023-09-12T11:56:54;13.88;;;10.07;;
74963;SDS011;63521;51.900;4.748;2023-09-12T11:59:24;16.55;;;11.48;;
74963;SDS011;63521;51.900;4.748;2023-09-12T12:01:51;15.15;;;10.15;;
74963;SDS011;63521;51.900;4.748;2023-09-12T12:04:17;15.57;;;10.55;;
74963;SDS011;63521;51.900;4.748;2023-09-12T12:09:15;14.20;;;9.77;;
74963;SDS011;63521;51.900;4.748;2023-09-12T12:11:44;14.85;;;10.57;;
74963;SDS011;63521;51.900;4.748;2023-09-12T12:14:13;14.82;;;10.05;;
74963;SDS011;63521;51.900;4.748;2023-09-12T12:16:40;15.10;;;9.85;;
74963;SDS011;63521;51.900;4.748;2023-09-12T12:19:07;13.80;;;9.60;;
74963;SDS011;63521;51.900;4.748;2023-09-12T12:21:32;13.25;;;9.45;;
74963;SDS011;63521;51.900;4.748;2023-09-12T12:23:58;13.55;;;9.73;;
74963;SDS011;63521;51.900;4.748;2023-09-12T12:26:28;14.93;;;9.95;;
74963;SDS011;63521;51.900;4.748;2023-09-12T12:28:54;12.48;;;9.77;;
74963;SDS011;63521;51.900;4.748;2023-09-12T12:31:23;15.32;;;9.90;;
74963;SDS011;63521;51.900;4.748;2023-09-12T12:33:53;14.32;;;10.02;;
74963;SDS011;63521;51.900;4.748;2023-09-12T12:36:31;12.35;;;9.40;;
74963;SDS011;63521;51.900;4.748;2023-09-12T12:38:56;12.32;;;8.98;;
74963;SDS011;63521;51.900;4.748;2023-09-12T12:41:23;12.75;;;9.25;;
74963;SDS011;63521;51.900;4.748;2023-09-12T12:43:51;12.25;;;9.48;;
74963;SDS011;63521;51.900;4.748;2023-09-12T12:46:17;13.93;;;9.95;;
74963;SDS011;63521;51.900;4.748;2023-09-12T12:48:44;13.10;;;9.20;;
74963;SDS011;63521;51.900;4.748;2023-09-12T12:51:23;12.52;;;9.43;;
74963;SDS011;63521;51.900;4.748;2023-09-12T12:53:53;12.55;;;9.15;;
74963;SDS011;63521;51.900;4.748;2023-09-12T12:56:23;12.32;;;9.18;;
74963;SDS011;63521;51.900;4.748;2023-09-12T12:58:52;13.18;;;9.18;;
74963;SDS011;63521;51.900;4.748;2023-09-12T13:01:20;12.30;;;9.20;;
74963;SDS011;63521;51.900;4.748;2023-09-12T13:03:46;12.13;;;9.18;;
74963;SDS011;63521;51.900;4.748;2023-09-12T13:06:12;13.70;;;9.98;;
74963;SDS011;63521;51.900;4.748;2023-09-12T13:08:42;11.32;;;8.85;;
74963;SDS011;63521;51.900;4.748;2023-09-12T13:11:09;12.52;;;8.85;;
74963;SDS011;63521;51.900;4.748;2023-09-12T13:13:35;13.55;;;9.20;;
74963;SDS011;63521;51.900;4.748;2023-09-12T13:16:02;12.55;;;8.85;;
74963;SDS011;63521;51.900;4.748;2023-09-12T13:18:30;11.68;;;8.98;;
74963;SDS011;63521;51.900;4.748;2023-09-12T13:20:58;12.05;;;8.98;;
74963;SDS011;63521;51.900;4.748;2023-09-12T13:23:24;13.05;;;9.30;;
74963;SDS011;63521;51.900;4.748;2023-09-12T13:25:50;11.55;;;9.18;;
74963;SDS011;63521;51.900;4.748;2023-09-12T13:28:16;12.65;;;9.13;;
74963;SDS011;63521;51.900;4.748;2023-09-12T13:30:41;11.57;;;8.13;;
74963;SDS011;63521;51.900;4.748;2023-09-12T13:33:07;13.38;;;9.02;;
74963;SDS011;63521;51.900;4.748;2023-09-12T13:35:32;10.95;;;8.13;;
74963;SDS011;63521;51.900;4.748;2023-09-12T13:37:58;11.57;;;8.30;;
74963;SDS011;63521;51.900;4.748;2023-09-12T13:40:23;11.95;;;8.15;;
74963;SDS011;63521;51.900;4.748;2023-09-12T13:42:49;12.32;;;8.32;;
74963;SDS011;63521;51.900;4.748;2023-09-12T13:45:14;11.07;;;7.25;;
74963;SDS011;63521;51.900;4.748;2023-09-12T13:47:40;10.95;;;7.85;;
74963;SDS011;63521;51.900;4.748;2023-09-12T13:50:06;11.48;;;7.57;;
74963;SDS011;63521;51.900;4.748;2023-09-12T13:52:32;10.82;;;7.60;;
74963;SDS011;63521;51.900;4.748;2023-09-12T13:54:57;10.27;;;7.45;;
74963;SDS011;63521;51.900;4.748;2023-09-12T13:57:23;9.75;;;7.10;;
74963;SDS011;63521;51.900;4.748;2023-09-12T13:59:48;10.88;;;7.50;;
74963;SDS011;63521;51.900;4.748;2023-09-12T14:02:13;9.45;;;6.57;;
74963;SDS011;63521;51.900;4.748;2023-09-12T14:04:39;10.52;;;6.80;;
74963;SDS011;63521;51.900;4.748;2023-09-12T14:07:05;11.02;;;7.40;;
74963;SDS011;63521;51.900;4.748;2023-09-12T14:09:31;10.48;;;7.18;;
74963;SDS011;63521;51.900;4.748;2023-09-12T14:11:56;9.40;;;6.90;;
74963;SDS011;63521;51.900;4.748;2023-09-12T14:14:21;10.13;;;7.47;;
74963;SDS011;63521;51.900;4.748;2023-09-12T14:16:47;9.05;;;7.22;;
74963;SDS011;63521;51.900;4.748;2023-09-12T14:19:12;12.05;;;7.22;;
74963;SDS011;63521;51.900;4.748;2023-09-12T14:21:38;10.07;;;6.90;;
74963;SDS011;63521;51.900;4.748;2023-09-12T14:24:03;9.43;;;6.97;;
74963;SDS011;63521;51.900;4.748;2023-09-12T14:26:29;8.38;;;6.25;;
74963;SDS011;63521;51.900;4.748;2023-09-12T14:28:55;11.05;;;6.47;;
74963;SDS011;63521;51.900;4.748;2023-09-12T14:31:21;9.48;;;6.90;;
74963;SDS011;63521;51.900;4.748;2023-09-12T14:33:48;9.20;;;6.35;;
74963;SDS011;63521;51.900;4.748;2023-09-12T14:36:14;10.57;;;6.97;;
74963;SDS011;63521;51.900;4.748;2023-09-12T14:38:39;9.65;;;6.63;;
74963;SDS011;63521;51.900;4.748;2023-09-12T14:41:05;9.50;;;6.75;;
74963;SDS011;63521;51.900;4.748;2023-09-12T14:43:30;9.23;;;6.65;;
74963;SDS011;63521;51.900;4.748;2023-09-12T14:45:56;8.70;;;5.93;;
74963;SDS011;63521;51.900;4.748;2023-09-12T14:48:22;9.80;;;6.20;;
74963;SDS011;63521;51.900;4.748;2023-09-12T14:50:47;8.45;;;6.47;;
74963;SDS011;63521;51.900;4.748;2023-09-12T14:53:14;8.82;;;5.78;;
74963;SDS011;63521;51.900;4.748;2023-09-12T14:55:41;8.15;;;6.32;;
74963;SDS011;63521;51.900;4.748;2023-09-12T14:58:06;8.10;;;5.88;;
74963;SDS011;63521;51.900;4.748;2023-09-12T15:00:32;9.05;;;5.47;;
74963;SDS011;63521;51.900;4.748;2023-09-12T15:02:58;8.95;;;6.78;;
74963;SDS011;63521;51.900;4.748;2023-09-12T15:05:25;9.48;;;6.47;;
74963;SDS011;63521;51.900;4.748;2023-09-12T15:07:50;8.90;;;6.45;;
74963;SDS011;63521;51.900;4.748;2023-09-12T15:10:16;8.27;;;5.65;;
74963;SDS011;63521;51.900;4.748;2023-09-12T15:12:42;7.57;;;5.45;;
74963;SDS011;63521;51.900;4.748;2023-09-12T15:15:07;8.40;;;5.35;;
74963;SDS011;63521;51.900;4.748;2023-09-12T15:17:33;8.55;;;6.30;;
74963;SDS011;63521;51.900;4.748;2023-09-12T15:19:59;7.68;;;5.60;;
74963;SDS011;63521;51.900;4.748;2023-09-12T15:22:24;7.78;;;5.70;;
74963;SDS011;63521;51.900;4.748;2023-09-12T15:24:50;8.75;;;5.40;;
74963;SDS011;63521;51.900;4.748;2023-09-12T15:27:15;8.68;;;6.00;;
74963;SDS011;63521;51.900;4.748;2023-09-12T15:29:40;7.15;;;5.40;;
74963;SDS011;63521;51.900;4.748;2023-09-12T15:32:06;8.95;;;5.47;;
74963;SDS011;63521;51.900;4.748;2023-09-12T15:34:32;7.47;;;5.22;;
74963;SDS011;63521;51.900;4.748;2023-09-12T15:37:10;8.00;;;5.47;;
74963;SDS011;63521;51.900;4.748;2023-09-12T15:39:36;8.93;;;5.65;;